sensor_id;sensor_type;location;lat;lon;timestamp;P1;durP1;ratioP1;P2;durP2;ratioP2
29732;SDS011;16643;43.158;25.302;2023-06-26T00:03:58;3.28;;;0.90;;
29732;SDS011;16643;43.158;25.302;2023-06-26T00:06:24;2.58;;;1.05;;
29732;SDS011;16643;43.158;25.302;2023-06-26T00:08:54;3.58;;;1.45;;
29732;SDS011;16643;43.158;25.302;2023-06-26T00:11:21;1.42;;;1.13;;
29732;SDS011;16643;43.158;25.302;2023-06-26T00:13:47;2.05;;;1.27;;
29732;SDS011;16643;43.158;25.302;2023-06-26T00:16:13;2.38;;;1.27;;
29732;SDS011;16643;43.158;25.302;2023-06-26T00:18:39;1.23;;;1.00;;
29732;SDS011;16643;43.158;25.302;2023-06-26T00:21:04;4.45;;;1.52;;
29732;SDS011;16643;43.158;25.302;2023-06-26T00:23:30;1.50;;;1.10;;
29732;SDS011;16643;43.158;25.302;2023-06-26T00:25:57;2.35;;;1.20;;
29732;SDS011;16643;43.158;25.302;2023-06-26T00:28:22;1.42;;;1.10;;
29732;SDS011;16643;43.158;25.302;2023-06-26T00:30:48;3.10;;;1.40;;
29732;SDS011;16643;43.158;25.302;2023-06-26T00:33:14;1.67;;;1.20;;
29732;SDS011;16643;43.158;25.302;2023-06-26T00:35:40;2.60;;;1.20;;
29732;SDS011;16643;43.158;25.302;2023-06-26T00:38:06;3.40;;;1.50;;
29732;SDS011;16643;43.158;25.302;2023-06-26T00:40:31;3.72;;;1.40;;
29732;SDS011;16643;43.158;25.302;2023-06-26T00:42:57;3.10;;;1.20;;
29732;SDS011;16643;43.158;25.302;2023-06-26T00:45:23;3.22;;;1.42;;
29732;SDS011;16643;43.158;25.302;2023-06-26T00:47:48;2.60;;;1.50;;
29732;SDS011;16643;43.158;25.302;2023-06-26T00:50:14;4.18;;;1.55;;
29732;SDS011;16643;43.158;25.302;2023-06-26T00:52:42;3.10;;;1.42;;
29732;SDS011;16643;43.158;25.302;2023-06-26T00:55:08;3.67;;;1.23;;
29732;SDS011;16643;43.158;25.302;2023-06-26T00:57:34;3.10;;;1.33;;
29732;SDS011;16643;43.158;25.302;2023-06-26T01:00:00;2.83;;;1.60;;
29732;SDS011;16643;43.158;25.302;2023-06-26T01:02:29;6.28;;;1.90;;
29732;SDS011;16643;43.158;25.302;2023-06-26T01:04:58;3.17;;;1.63;;
29732;SDS011;16643;43.158;25.302;2023-06-26T01:07:28;5.18;;;1.83;;
29732;SDS011;16643;43.158;25.302;2023-06-26T01:09:57;4.20;;;1.70;;
29732;SDS011;16643;43.158;25.302;2023-06-26T01:12:24;4.00;;;1.60;;
29732;SDS011;16643;43.158;25.302;2023-06-26T01:14:49;4.28;;;1.85;;
29732;SDS011;16643;43.158;25.302;2023-06-26T01:17:15;5.40;;;2.53;;
29732;SDS011;16643;43.158;25.302;2023-06-26T01:19:41;4.88;;;2.15;;
29732;SDS011;16643;43.158;25.302;2023-06-26T01:22:20;4.43;;;2.25;;
29732;SDS011;16643;43.158;25.302;2023-06-26T01:27:46;4.97;;;2.10;;
29732;SDS011;16643;43.158;25.302;2023-06-26T01:30:14;3.38;;;1.92;;
29732;SDS011;16643;43.158;25.302;2023-06-26T01:32:43;4.28;;;2.50;;
29732;SDS011;16643;43.158;25.302;2023-06-26T01:35:10;6.75;;;2.75;;
29732;SDS011;16643;43.158;25.302;2023-06-26T01:37:37;9.80;;;2.70;;
29732;SDS011;16643;43.158;25.302;2023-06-26T01:40:06;10.05;;;3.30;;
29732;SDS011;16643;43.158;25.302;2023-06-26T01:42:33;3.47;;;2.03;;
29732;SDS011;16643;43.158;25.302;2023-06-26T01:45:05;7.50;;;3.40;;
29732;SDS011;16643;43.158;25.302;2023-06-26T01:47:37;5.88;;;3.45;;
29732;SDS011;16643;43.158;25.302;2023-06-26T01:50:10;8.80;;;3.70;;
29732;SDS011;16643;43.158;25.302;2023-06-26T01:55:40;5.60;;;2.55;;
29732;SDS011;16643;43.158;25.302;2023-06-26T01:58:11;9.02;;;3.80;;
29732;SDS011;16643;43.158;25.302;2023-06-26T02:00:42;6.85;;;3.17;;
29732;SDS011;16643;43.158;25.302;2023-06-26T02:03:08;5.90;;;3.08;;
29732;SDS011;16643;43.158;25.302;2023-06-26T02:05:34;10.25;;;3.95;;
29732;SDS011;16643;43.158;25.302;2023-06-26T02:08:00;7.15;;;2.92;;
29732;SDS011;16643;43.158;25.302;2023-06-26T02:10:29;10.50;;;4.05;;
29732;SDS011;16643;43.158;25.302;2023-06-26T02:12:55;12.43;;;3.67;;
29732;SDS011;16643;43.158;25.302;2023-06-26T02:15:20;10.95;;;4.45;;
29732;SDS011;16643;43.158;25.302;2023-06-26T02:17:47;10.57;;;4.20;;
29732;SDS011;16643;43.158;25.302;2023-06-26T02:20:13;7.03;;;3.78;;
29732;SDS011;16643;43.158;25.302;2023-06-26T02:22:40;9.43;;;4.15;;
29732;SDS011;16643;43.158;25.302;2023-06-26T02:25:07;16.90;;;4.95;;
29732;SDS011;16643;43.158;25.302;2023-06-26T02:27:33;6.38;;;4.85;;
29732;SDS011;16643;43.158;25.302;2023-06-26T02:29:58;13.63;;;5.95;;
29732;SDS011;16643;43.158;25.302;2023-06-26T02:32:24;10.75;;;5.35;;
29732;SDS011;16643;43.158;25.302;2023-06-26T02:34:50;36.15;;;7.35;;
29732;SDS011;16643;43.158;25.302;2023-06-26T02:37:19;12.02;;;5.50;;
29732;SDS011;16643;43.158;25.302;2023-06-26T02:39:44;8.75;;;4.80;;
29732;SDS011;16643;43.158;25.302;2023-06-26T02:42:10;12.02;;;4.78;;
29732;SDS011;16643;43.158;25.302;2023-06-26T02:44:36;10.77;;;4.78;;
29732;SDS011;16643;43.158;25.302;2023-06-26T02:47:02;14.45;;;5.18;;
29732;SDS011;16643;43.158;25.302;2023-06-26T02:49:27;9.85;;;5.15;;
29732;SDS011;16643;43.158;25.302;2023-06-26T02:51:53;10.82;;;4.75;;
29732;SDS011;16643;43.158;25.302;2023-06-26T02:54:19;13.52;;;5.38;;
29732;SDS011;16643;43.158;25.302;2023-06-26T02:56:44;10.90;;;5.30;;
29732;SDS011;16643;43.158;25.302;2023-06-26T02:59:10;13.00;;;5.90;;
29732;SDS011;16643;43.158;25.302;2023-06-26T03:01:36;11.57;;;4.90;;
29732;SDS011;16643;43.158;25.302;2023-06-26T03:04:01;10.80;;;5.35;;
29732;SDS011;16643;43.158;25.302;2023-06-26T03:06:27;14.18;;;5.90;;
29732;SDS011;16643;43.158;25.302;2023-06-26T03:08:53;17.85;;;6.35;;
29732;SDS011;16643;43.158;25.302;2023-06-26T03:11:19;15.93;;;6.38;;
29732;SDS011;16643;43.158;25.302;2023-06-26T03:13:44;16.02;;;5.82;;
29732;SDS011;16643;43.158;25.302;2023-06-26T03:16:10;14.43;;;6.57;;
29732;SDS011;16643;43.158;25.302;2023-06-26T03:18:36;14.65;;;6.32;;
29732;SDS011;16643;43.158;25.302;2023-06-26T03:21:02;10.35;;;6.15;;
29732;SDS011;16643;43.158;25.302;2023-06-26T03:23:27;16.27;;;6.72;;
29732;SDS011;16643;43.158;25.302;2023-06-26T03:25:53;10.80;;;6.28;;
29732;SDS011;16643;43.158;25.302;2023-06-26T03:28:19;9.68;;;6.35;;
29732;SDS011;16643;43.158;25.302;2023-06-26T03:30:44;16.30;;;7.60;;
29732;SDS011;16643;43.158;25.302;2023-06-26T03:33:10;17.02;;;7.95;;
29732;SDS011;16643;43.158;25.302;2023-06-26T03:35:36;14.98;;;8.02;;
29732;SDS011;16643;43.158;25.302;2023-06-26T03:38:03;18.83;;;8.95;;
29732;SDS011;16643;43.158;25.302;2023-06-26T03:40:29;16.25;;;9.40;;
29732;SDS011;16643;43.158;25.302;2023-06-26T03:42:54;15.00;;;8.93;;
29732;SDS011;16643;43.158;25.302;2023-06-26T03:45:20;23.05;;;8.38;;
29732;SDS011;16643;43.158;25.302;2023-06-26T03:47:46;14.85;;;8.68;;
29732;SDS011;16643;43.158;25.302;2023-06-26T03:50:18;19.85;;;8.65;;
29732;SDS011;16643;43.158;25.302;2023-06-26T03:52:44;18.80;;;9.65;;
29732;SDS011;16643;43.158;25.302;2023-06-26T03:55:10;22.38;;;10.80;;
29732;SDS011;16643;43.158;25.302;2023-06-26T03:57:36;17.25;;;11.25;;
29732;SDS011;16643;43.158;25.302;2023-06-26T04:00:02;16.73;;;10.23;;
29732;SDS011;16643;43.158;25.302;2023-06-26T04:02:33;18.88;;;11.18;;
29732;SDS011;16643;43.158;25.302;2023-06-26T04:05:00;19.60;;;12.27;;
29732;SDS011;16643;43.158;25.302;2023-06-26T04:07:26;16.98;;;12.95;;
29732;SDS011;16643;43.158;25.302;2023-06-26T04:09:52;22.25;;;13.60;;
29732;SDS011;16643;43.158;25.302;2023-06-26T04:12:17;19.33;;;13.65;;
29732;SDS011;16643;43.158;25.302;2023-06-26T04:14:43;19.55;;;12.85;;
29732;SDS011;16643;43.158;25.302;2023-06-26T04:17:09;18.45;;;11.82;;
29732;SDS011;16643;43.158;25.302;2023-06-26T04:19:35;18.02;;;13.80;;
29732;SDS011;16643;43.158;25.302;2023-06-26T04:22:01;19.98;;;12.95;;
29732;SDS011;16643;43.158;25.302;2023-06-26T04:24:27;17.33;;;12.07;;
29732;SDS011;16643;43.158;25.302;2023-06-26T04:26:53;18.80;;;13.20;;
29732;SDS011;16643;43.158;25.302;2023-06-26T04:29:22;23.00;;;13.93;;
29732;SDS011;16643;43.158;25.302;2023-06-26T04:31:51;21.00;;;14.05;;
29732;SDS011;16643;43.158;25.302;2023-06-26T04:34:17;20.70;;;13.80;;
29732;SDS011;16643;43.158;25.302;2023-06-26T04:36:43;17.85;;;13.55;;
29732;SDS011;16643;43.158;25.302;2023-06-26T04:39:13;19.80;;;13.10;;
29732;SDS011;16643;43.158;25.302;2023-06-26T04:41:40;21.77;;;15.07;;
29732;SDS011;16643;43.158;25.302;2023-06-26T04:44:06;23.25;;;15.43;;
29732;SDS011;16643;43.158;25.302;2023-06-26T04:46:31;18.23;;;12.38;;
29732;SDS011;16643;43.158;25.302;2023-06-26T04:48:57;16.25;;;13.30;;
29732;SDS011;16643;43.158;25.302;2023-06-26T04:51:24;18.75;;;13.70;;
29732;SDS011;16643;43.158;25.302;2023-06-26T04:53:52;19.40;;;14.50;;
29732;SDS011;16643;43.158;25.302;2023-06-26T04:56:18;17.98;;;13.27;;
29732;SDS011;16643;43.158;25.302;2023-06-26T04:58:43;17.13;;;13.63;;
29732;SDS011;16643;43.158;25.302;2023-06-26T05:01:09;16.27;;;12.52;;
29732;SDS011;16643;43.158;25.302;2023-06-26T05:03:35;19.50;;;12.45;;
29732;SDS011;16643;43.158;25.302;2023-06-26T05:06:02;17.35;;;13.80;;
29732;SDS011;16643;43.158;25.302;2023-06-26T05:08:27;25.63;;;14.27;;
29732;SDS011;16643;43.158;25.302;2023-06-26T05:10:53;18.98;;;12.10;;
29732;SDS011;16643;43.158;25.302;2023-06-26T05:13:22;21.95;;;13.30;;
29732;SDS011;16643;43.158;25.302;2023-06-26T05:15:48;19.65;;;14.23;;
29732;SDS011;16643;43.158;25.302;2023-06-26T05:18:14;19.95;;;14.70;;
29732;SDS011;16643;43.158;25.302;2023-06-26T05:20:40;18.60;;;12.18;;
29732;SDS011;16643;43.158;25.302;2023-06-26T05:23:06;19.70;;;13.35;;
29732;SDS011;16643;43.158;25.302;2023-06-26T05:25:32;17.30;;;11.77;;
29732;SDS011;16643;43.158;25.302;2023-06-26T05:27:59;19.17;;;13.57;;
29732;SDS011;16643;43.158;25.302;2023-06-26T05:30:27;17.65;;;12.40;;
29732;SDS011;16643;43.158;25.302;2023-06-26T05:32:53;16.73;;;12.48;;
29732;SDS011;16643;43.158;25.302;2023-06-26T05:35:20;20.40;;;14.35;;
29732;SDS011;16643;43.158;25.302;2023-06-26T05:37:50;17.65;;;12.73;;
29732;SDS011;16643;43.158;25.302;2023-06-26T05:40:17;17.52;;;12.50;;
29732;SDS011;16643;43.158;25.302;2023-06-26T05:42:44;18.92;;;12.88;;
29732;SDS011;16643;43.158;25.302;2023-06-26T05:45:10;20.05;;;12.15;;
29732;SDS011;16643;43.158;25.302;2023-06-26T05:47:36;20.60;;;12.90;;
29732;SDS011;16643;43.158;25.302;2023-06-26T05:50:02;25.35;;;12.65;;
29732;SDS011;16643;43.158;25.302;2023-06-26T05:52:28;16.63;;;12.85;;
29732;SDS011;16643;43.158;25.302;2023-06-26T05:54:55;21.08;;;12.82;;
29732;SDS011;16643;43.158;25.302;2023-06-26T05:57:28;20.15;;;12.32;;
29732;SDS011;16643;43.158;25.302;2023-06-26T05:59:55;20.10;;;12.23;;
29732;SDS011;16643;43.158;25.302;2023-06-26T06:02:21;17.42;;;11.43;;
29732;SDS011;16643;43.158;25.302;2023-06-26T06:04:47;15.98;;;13.23;;
29732;SDS011;16643;43.158;25.302;2023-06-26T06:07:13;19.48;;;13.10;;
29732;SDS011;16643;43.158;25.302;2023-06-26T06:09:39;17.25;;;11.50;;
29732;SDS011;16643;43.158;25.302;2023-06-26T06:12:05;20.85;;;12.98;;
29732;SDS011;16643;43.158;25.302;2023-06-26T06:14:32;18.65;;;12.55;;
29732;SDS011;16643;43.158;25.302;2023-06-26T06:16:58;18.25;;;12.65;;
29732;SDS011;16643;43.158;25.302;2023-06-26T06:19:24;20.48;;;12.93;;
29732;SDS011;16643;43.158;25.302;2023-06-26T06:21:49;21.20;;;13.82;;
29732;SDS011;16643;43.158;25.302;2023-06-26T06:24:15;22.27;;;13.05;;
29732;SDS011;16643;43.158;25.302;2023-06-26T06:26:41;16.95;;;12.30;;
29732;SDS011;16643;43.158;25.302;2023-06-26T06:29:07;21.08;;;12.63;;
29732;SDS011;16643;43.158;25.302;2023-06-26T06:31:32;28.45;;;13.65;;
29732;SDS011;16643;43.158;25.302;2023-06-26T06:33:58;22.65;;;13.60;;
29732;SDS011;16643;43.158;25.302;2023-06-26T06:36:23;18.23;;;12.00;;
29732;SDS011;16643;43.158;25.302;2023-06-26T06:38:49;20.30;;;12.25;;
29732;SDS011;16643;43.158;25.302;2023-06-26T06:41:15;19.30;;;13.48;;
29732;SDS011;16643;43.158;25.302;2023-06-26T06:43:41;22.58;;;12.90;;
29732;SDS011;16643;43.158;25.302;2023-06-26T06:46:07;20.75;;;12.85;;
29732;SDS011;16643;43.158;25.302;2023-06-26T06:48:34;18.35;;;13.88;;
29732;SDS011;16643;43.158;25.302;2023-06-26T06:51:00;18.67;;;12.73;;
29732;SDS011;16643;43.158;25.302;2023-06-26T06:53:25;23.52;;;14.13;;
29732;SDS011;16643;43.158;25.302;2023-06-26T06:55:51;15.70;;;12.43;;
29732;SDS011;16643;43.158;25.302;2023-06-26T06:58:17;19.58;;;12.00;;
29732;SDS011;16643;43.158;25.302;2023-06-26T07:00:46;16.58;;;12.45;;
29732;SDS011;16643;43.158;25.302;2023-06-26T07:03:12;17.17;;;12.45;;
29732;SDS011;16643;43.158;25.302;2023-06-26T07:05:38;17.42;;;11.63;;
29732;SDS011;16643;43.158;25.302;2023-06-26T07:08:03;16.98;;;11.68;;
29732;SDS011;16643;43.158;25.302;2023-06-26T07:10:30;17.05;;;12.40;;
29732;SDS011;16643;43.158;25.302;2023-06-26T07:12:56;19.05;;;12.27;;
29732;SDS011;16643;43.158;25.302;2023-06-26T07:15:21;16.75;;;12.65;;
29732;SDS011;16643;43.158;25.302;2023-06-26T07:17:47;16.92;;;12.30;;
29732;SDS011;16643;43.158;25.302;2023-06-26T07:20:13;16.98;;;12.80;;
29732;SDS011;16643;43.158;25.302;2023-06-26T07:22:41;16.83;;;10.75;;
29732;SDS011;16643;43.158;25.302;2023-06-26T07:25:07;18.40;;;11.48;;
29732;SDS011;16643;43.158;25.302;2023-06-26T07:27:34;17.98;;;13.02;;
29732;SDS011;16643;43.158;25.302;2023-06-26T07:30:01;17.23;;;12.63;;
29732;SDS011;16643;43.158;25.302;2023-06-26T07:32:27;15.10;;;12.68;;
29732;SDS011;16643;43.158;25.302;2023-06-26T07:34:52;18.85;;;12.02;;
29732;SDS011;16643;43.158;25.302;2023-06-26T07:37:18;14.43;;;11.35;;
29732;SDS011;16643;43.158;25.302;2023-06-26T07:39:43;15.52;;;10.90;;
29732;SDS011;16643;43.158;25.302;2023-06-26T07:42:09;16.27;;;10.68;;
29732;SDS011;16643;43.158;25.302;2023-06-26T07:44:35;17.27;;;12.38;;
29732;SDS011;16643;43.158;25.302;2023-06-26T07:47:00;15.35;;;10.73;;
29732;SDS011;16643;43.158;25.302;2023-06-26T07:49:26;13.82;;;11.38;;
29732;SDS011;16643;43.158;25.302;2023-06-26T07:51:52;12.95;;;11.50;;
29732;SDS011;16643;43.158;25.302;2023-06-26T07:54:17;16.83;;;12.15;;
29732;SDS011;16643;43.158;25.302;2023-06-26T07:56:52;16.85;;;11.38;;
29732;SDS011;16643;43.158;25.302;2023-06-26T07:59:19;15.68;;;11.35;;
29732;SDS011;16643;43.158;25.302;2023-06-26T08:01:49;14.38;;;11.32;;
29732;SDS011;16643;43.158;25.302;2023-06-26T08:06:43;15.77;;;11.07;;
29732;SDS011;16643;43.158;25.302;2023-06-26T08:09:09;15.43;;;9.82;;
29732;SDS011;16643;43.158;25.302;2023-06-26T08:11:34;13.95;;;9.30;;
29732;SDS011;16643;43.158;25.302;2023-06-26T08:14:00;15.43;;;10.77;;
29732;SDS011;16643;43.158;25.302;2023-06-26T08:16:26;12.13;;;9.20;;
29732;SDS011;16643;43.158;25.302;2023-06-26T08:18:51;15.15;;;10.15;;
29732;SDS011;16643;43.158;25.302;2023-06-26T08:21:17;16.67;;;10.15;;
29732;SDS011;16643;43.158;25.302;2023-06-26T08:23:43;12.40;;;10.13;;
29732;SDS011;16643;43.158;25.302;2023-06-26T08:26:08;18.20;;;11.02;;
29732;SDS011;16643;43.158;25.302;2023-06-26T08:28:34;11.85;;;10.35;;
29732;SDS011;16643;43.158;25.302;2023-06-26T08:31:00;16.40;;;10.77;;
29732;SDS011;16643;43.158;25.302;2023-06-26T08:33:25;16.10;;;9.35;;
29732;SDS011;16643;43.158;25.302;2023-06-26T08:35:51;15.10;;;9.98;;
29732;SDS011;16643;43.158;25.302;2023-06-26T08:38:17;13.63;;;10.15;;
29732;SDS011;16643;43.158;25.302;2023-06-26T08:40:43;15.30;;;10.52;;
29732;SDS011;16643;43.158;25.302;2023-06-26T08:43:09;13.02;;;10.45;;
29732;SDS011;16643;43.158;25.302;2023-06-26T08:45:35;11.32;;;8.68;;
29732;SDS011;16643;43.158;25.302;2023-06-26T08:48:02;12.32;;;8.57;;
29732;SDS011;16643;43.158;25.302;2023-06-26T08:50:33;13.07;;;9.35;;
29732;SDS011;16643;43.158;25.302;2023-06-26T08:56:03;13.02;;;9.20;;
29732;SDS011;16643;43.158;25.302;2023-06-26T08:58:29;13.18;;;8.63;;
29732;SDS011;16643;43.158;25.302;2023-06-26T09:00:55;13.32;;;10.50;;
29732;SDS011;16643;43.158;25.302;2023-06-26T09:03:22;10.43;;;8.70;;
29732;SDS011;16643;43.158;25.302;2023-06-26T09:05:50;12.75;;;8.70;;
29732;SDS011;16643;43.158;25.302;2023-06-26T09:08:16;12.50;;;8.38;;
29732;SDS011;16643;43.158;25.302;2023-06-26T09:10:41;13.32;;;8.52;;
29732;SDS011;16643;43.158;25.302;2023-06-26T09:13:07;11.93;;;8.80;;
29732;SDS011;16643;43.158;25.302;2023-06-26T09:15:52;14.32;;;8.85;;
29732;SDS011;16643;43.158;25.302;2023-06-26T09:18:20;11.90;;;8.10;;
29732;SDS011;16643;43.158;25.302;2023-06-26T09:20:46;10.30;;;8.55;;
29732;SDS011;16643;43.158;25.302;2023-06-26T09:23:13;12.13;;;7.70;;
29732;SDS011;16643;43.158;25.302;2023-06-26T09:25:39;11.25;;;7.57;;
29732;SDS011;16643;43.158;25.302;2023-06-26T09:28:05;11.25;;;8.07;;
29732;SDS011;16643;43.158;25.302;2023-06-26T09:30:34;10.20;;;7.45;;
29732;SDS011;16643;43.158;25.302;2023-06-26T09:33:16;14.63;;;8.07;;
29732;SDS011;16643;43.158;25.302;2023-06-26T09:35:46;10.88;;;7.45;;
29732;SDS011;16643;43.158;25.302;2023-06-26T09:38:13;12.95;;;7.65;;
29732;SDS011;16643;43.158;25.302;2023-06-26T09:40:40;11.13;;;7.88;;
29732;SDS011;16643;43.158;25.302;2023-06-26T09:43:06;12.02;;;7.20;;
29732;SDS011;16643;43.158;25.302;2023-06-26T09:45:33;10.45;;;6.53;;
29732;SDS011;16643;43.158;25.302;2023-06-26T09:48:02;9.60;;;7.28;;
29732;SDS011;16643;43.158;25.302;2023-06-26T09:50:28;9.15;;;6.82;;
29732;SDS011;16643;43.158;25.302;2023-06-26T09:52:55;11.05;;;7.72;;
29732;SDS011;16643;43.158;25.302;2023-06-26T09:55:21;12.07;;;6.78;;
29732;SDS011;16643;43.158;25.302;2023-06-26T09:57:49;8.27;;;7.03;;
29732;SDS011;16643;43.158;25.302;2023-06-26T10:00:16;9.73;;;7.35;;
29732;SDS011;16643;43.158;25.302;2023-06-26T10:02:42;13.48;;;7.20;;
29732;SDS011;16643;43.158;25.302;2023-06-26T10:05:08;12.00;;;7.50;;
29732;SDS011;16643;43.158;25.302;2023-06-26T10:07:34;9.57;;;6.72;;
29732;SDS011;16643;43.158;25.302;2023-06-26T10:10:02;9.23;;;7.40;;
29732;SDS011;16643;43.158;25.302;2023-06-26T10:14:56;9.83;;;6.63;;
29732;SDS011;16643;43.158;25.302;2023-06-26T10:17:24;7.35;;;5.65;;
29732;SDS011;16643;43.158;25.302;2023-06-26T10:19:53;8.43;;;6.20;;
29732;SDS011;16643;43.158;25.302;2023-06-26T10:22:21;8.00;;;5.60;;
29732;SDS011;16643;43.158;25.302;2023-06-26T10:24:52;7.53;;;5.60;;
29732;SDS011;16643;43.158;25.302;2023-06-26T10:27:21;10.05;;;5.85;;
29732;SDS011;16643;43.158;25.302;2023-06-26T10:29:53;8.20;;;5.93;;
29732;SDS011;16643;43.158;25.302;2023-06-26T10:32:21;9.13;;;6.40;;
29732;SDS011;16643;43.158;25.302;2023-06-26T10:34:50;8.75;;;5.35;;
29732;SDS011;16643;43.158;25.302;2023-06-26T10:37:17;7.20;;;5.63;;
29732;SDS011;16643;43.158;25.302;2023-06-26T10:42:15;11.45;;;6.07;;
29732;SDS011;16643;43.158;25.302;2023-06-26T10:44:42;6.75;;;5.57;;
29732;SDS011;16643;43.158;25.302;2023-06-26T10:47:09;7.60;;;5.90;;
29732;SDS011;16643;43.158;25.302;2023-06-26T10:49:36;11.30;;;6.50;;
29732;SDS011;16643;43.158;25.302;2023-06-26T10:52:04;9.35;;;6.32;;
29732;SDS011;16643;43.158;25.302;2023-06-26T10:54:31;9.13;;;6.15;;
29732;SDS011;16643;43.158;25.302;2023-06-26T10:56:58;9.85;;;6.20;;
29732;SDS011;16643;43.158;25.302;2023-06-26T10:59:24;9.70;;;5.20;;
29732;SDS011;16643;43.158;25.302;2023-06-26T11:04:35;6.95;;;5.38;;
29732;SDS011;16643;43.158;25.302;2023-06-26T11:07:15;7.85;;;4.93;;
29732;SDS011;16643;43.158;25.302;2023-06-26T11:10:28;7.97;;;5.72;;
29732;SDS011;16643;43.158;25.302;2023-06-26T11:15:15;7.95;;;6.18;;
29732;SDS011;16643;43.158;25.302;2023-06-26T11:17:42;9.77;;;5.53;;
29732;SDS011;16643;43.158;25.302;2023-06-26T11:20:09;8.15;;;4.95;;
29732;SDS011;16643;43.158;25.302;2023-06-26T11:22:36;9.85;;;5.00;;
29732;SDS011;16643;43.158;25.302;2023-06-26T11:25:03;7.22;;;5.05;;
29732;SDS011;16643;43.158;25.302;2023-06-26T11:30:02;11.23;;;4.80;;
29732;SDS011;16643;43.158;25.302;2023-06-26T11:32:27;7.38;;;4.57;;
29732;SDS011;16643;43.158;25.302;2023-06-26T11:34:54;7.15;;;4.60;;
29732;SDS011;16643;43.158;25.302;2023-06-26T11:37:21;7.78;;;5.07;;
29732;SDS011;16643;43.158;25.302;2023-06-26T11:39:47;11.80;;;5.55;;
29732;SDS011;16643;43.158;25.302;2023-06-26T11:42:13;7.75;;;5.10;;
29732;SDS011;16643;43.158;25.302;2023-06-26T11:44:42;8.38;;;5.03;;
29732;SDS011;16643;43.158;25.302;2023-06-26T11:47:17;6.80;;;5.05;;
29732;SDS011;16643;43.158;25.302;2023-06-26T11:49:44;8.48;;;5.47;;
29732;SDS011;16643;43.158;25.302;2023-06-26T11:52:11;6.23;;;4.17;;
29732;SDS011;16643;43.158;25.302;2023-06-26T11:54:37;8.57;;;4.85;;
29732;SDS011;16643;43.158;25.302;2023-06-26T11:57:04;8.55;;;4.78;;
29732;SDS011;16643;43.158;25.302;2023-06-26T11:59:36;10.60;;;4.80;;
29732;SDS011;16643;43.158;25.302;2023-06-26T12:04:34;6.20;;;4.57;;
29732;SDS011;16643;43.158;25.302;2023-06-26T12:07:02;10.02;;;5.18;;
29732;SDS011;16643;43.158;25.302;2023-06-26T12:09:32;8.45;;;4.63;;
29732;SDS011;16643;43.158;25.302;2023-06-26T12:11:58;7.07;;;5.03;;
29732;SDS011;16643;43.158;25.302;2023-06-26T12:14:25;9.77;;;5.68;;
29732;SDS011;16643;43.158;25.302;2023-06-26T12:16:53;8.90;;;4.72;;
29732;SDS011;16643;43.158;25.302;2023-06-26T12:19:24;6.13;;;4.80;;
29732;SDS011;16643;43.158;25.302;2023-06-26T12:21:53;10.68;;;4.68;;
29732;SDS011;16643;43.158;25.302;2023-06-26T12:24:22;11.63;;;4.68;;
29732;SDS011;16643;43.158;25.302;2023-06-26T12:26:54;7.32;;;4.43;;
29732;SDS011;16643;43.158;25.302;2023-06-26T12:29:31;8.02;;;4.90;;
29732;SDS011;16643;43.158;25.302;2023-06-26T12:31:58;6.00;;;4.22;;
29732;SDS011;16643;43.158;25.302;2023-06-26T12:34:26;7.18;;;4.35;;
29732;SDS011;16643;43.158;25.302;2023-06-26T12:37:03;9.30;;;4.45;;
29732;SDS011;16643;43.158;25.302;2023-06-26T12:39:44;6.18;;;4.18;;
29732;SDS011;16643;43.158;25.302;2023-06-26T12:42:13;6.35;;;4.78;;
29732;SDS011;16643;43.158;25.302;2023-06-26T12:44:42;9.88;;;5.03;;
29732;SDS011;16643;43.158;25.302;2023-06-26T12:47:08;7.10;;;4.30;;
29732;SDS011;16643;43.158;25.302;2023-06-26T12:49:35;8.50;;;3.97;;
29732;SDS011;16643;43.158;25.302;2023-06-26T12:52:06;8.88;;;5.38;;
29732;SDS011;16643;43.158;25.302;2023-06-26T12:56:58;8.93;;;5.57;;
29732;SDS011;16643;43.158;25.302;2023-06-26T12:59:24;7.53;;;4.85;;
29732;SDS011;16643;43.158;25.302;2023-06-26T13:01:50;8.90;;;5.00;;
29732;SDS011;16643;43.158;25.302;2023-06-26T13:04:16;8.27;;;5.18;;
29732;SDS011;16643;43.158;25.302;2023-06-26T13:06:41;7.60;;;4.97;;
29732;SDS011;16643;43.158;25.302;2023-06-26T13:09:07;6.95;;;4.45;;
29732;SDS011;16643;43.158;25.302;2023-06-26T13:11:33;6.43;;;2.95;;
29732;SDS011;16643;43.158;25.302;2023-06-26T13:14:00;4.93;;;3.15;;
29732;SDS011;16643;43.158;25.302;2023-06-26T13:16:26;4.18;;;2.40;;
29732;SDS011;16643;43.158;25.302;2023-06-26T13:18:51;4.80;;;3.10;;
29732;SDS011;16643;43.158;25.302;2023-06-26T13:21:17;7.10;;;2.70;;
29732;SDS011;16643;43.158;25.302;2023-06-26T13:23:43;3.83;;;2.22;;
29732;SDS011;16643;43.158;25.302;2023-06-26T13:26:09;4.35;;;2.33;;
29732;SDS011;16643;43.158;25.302;2023-06-26T13:28:36;3.83;;;2.03;;
29732;SDS011;16643;43.158;25.302;2023-06-26T13:31:02;4.65;;;2.38;;
29732;SDS011;16643;43.158;25.302;2023-06-26T13:33:28;3.75;;;2.15;;
29732;SDS011;16643;43.158;25.302;2023-06-26T13:35:54;3.95;;;2.45;;
29732;SDS011;16643;43.158;25.302;2023-06-26T13:38:20;4.68;;;3.22;;
29732;SDS011;16643;43.158;25.302;2023-06-26T13:40:50;7.05;;;3.88;;
29732;SDS011;16643;43.158;25.302;2023-06-26T13:43:20;10.27;;;4.18;;
29732;SDS011;16643;43.158;25.302;2023-06-26T13:45:47;7.88;;;4.78;;
29732;SDS011;16643;43.158;25.302;2023-06-26T13:48:13;8.45;;;4.03;;
29732;SDS011;16643;43.158;25.302;2023-06-26T13:50:39;10.63;;;4.97;;
29732;SDS011;16643;43.158;25.302;2023-06-26T13:53:05;5.18;;;3.67;;
29732;SDS011;16643;43.158;25.302;2023-06-26T13:55:31;8.88;;;4.07;;
29732;SDS011;16643;43.158;25.302;2023-06-26T13:57:58;6.63;;;3.92;;
29732;SDS011;16643;43.158;25.302;2023-06-26T14:00:24;7.57;;;4.10;;
29732;SDS011;16643;43.158;25.302;2023-06-26T14:02:50;5.45;;;3.20;;
29732;SDS011;16643;43.158;25.302;2023-06-26T14:05:17;7.22;;;4.10;;
29732;SDS011;16643;43.158;25.302;2023-06-26T14:07:44;7.67;;;3.97;;
29732;SDS011;16643;43.158;25.302;2023-06-26T14:10:10;5.13;;;3.53;;
29732;SDS011;16643;43.158;25.302;2023-06-26T14:12:36;5.72;;;3.58;;
29732;SDS011;16643;43.158;25.302;2023-06-26T14:15:01;5.53;;;3.20;;
29732;SDS011;16643;43.158;25.302;2023-06-26T14:17:28;5.70;;;3.70;;
29732;SDS011;16643;43.158;25.302;2023-06-26T14:19:54;6.53;;;3.88;;
29732;SDS011;16643;43.158;25.302;2023-06-26T14:22:19;6.45;;;3.92;;
29732;SDS011;16643;43.158;25.302;2023-06-26T14:24:46;7.15;;;4.00;;
29732;SDS011;16643;43.158;25.302;2023-06-26T14:27:12;5.35;;;3.97;;
29732;SDS011;16643;43.158;25.302;2023-06-26T14:29:37;8.18;;;3.63;;
29732;SDS011;16643;43.158;25.302;2023-06-26T14:32:03;7.35;;;4.35;;
29732;SDS011;16643;43.158;25.302;2023-06-26T14:34:29;6.93;;;3.33;;
29732;SDS011;16643;43.158;25.302;2023-06-26T14:36:55;4.88;;;3.60;;
29732;SDS011;16643;43.158;25.302;2023-06-26T14:39:20;5.88;;;3.22;;
29732;SDS011;16643;43.158;25.302;2023-06-26T14:41:46;6.75;;;3.50;;
29732;SDS011;16643;43.158;25.302;2023-06-26T14:44:15;8.18;;;3.30;;
29732;SDS011;16643;43.158;25.302;2023-06-26T14:46:41;6.72;;;3.50;;
29732;SDS011;16643;43.158;25.302;2023-06-26T14:49:07;4.80;;;2.97;;
29732;SDS011;16643;43.158;25.302;2023-06-26T14:51:33;4.38;;;2.53;;
29732;SDS011;16643;43.158;25.302;2023-06-26T14:53:59;4.53;;;2.78;;